sensor_id;sensor_type;location;lat;lon;timestamp;temperature;humidity
14993;DHT22;7592;51.088;13.732;2023-04-24T00:03:38;12.90;99.90
14993;DHT22;7592;51.088;13.732;2023-04-24T00:08:31;12.80;99.90
14993;DHT22;7592;51.088;13.732;2023-04-24T00:13:23;12.80;99.90
14993;DHT22;7592;51.088;13.732;2023-04-24T00:18:15;13.00;99.90
14993;DHT22;7592;51.088;13.732;2023-04-24T00:23:07;12.90;99.90
14993;DHT22;7592;51.088;13.732;2023-04-24T00:27:59;12.90;99.90
14993;DHT22;7592;51.088;13.732;2023-04-24T00:32:52;12.80;99.90
14993;DHT22;7592;51.088;13.732;2023-04-24T00:37:44;12.80;99.90
14993;DHT22;7592;51.088;13.732;2023-04-24T00:42:36;12.80;99.90
14993;DHT22;7592;51.088;13.732;2023-04-24T00:47:28;12.80;99.90
14993;DHT22;7592;51.088;13.732;2023-04-24T00:52:22;12.80;99.90
14993;DHT22;7592;51.088;13.732;2023-04-24T00:57:16;12.80;99.90
14993;DHT22;7592;51.088;13.732;2023-04-24T01:02:10;12.90;99.90
14993;DHT22;7592;51.088;13.732;2023-04-24T01:07:26;12.80;99.90
14993;DHT22;7592;51.088;13.732;2023-04-24T01:12:42;12.90;99.90
14993;DHT22;7592;51.088;13.732;2023-04-24T01:17:41;12.90;99.90
14993;DHT22;7592;51.088;13.732;2023-04-24T01:22:34;12.90;99.90
14993;DHT22;7592;51.088;13.732;2023-04-24T01:27:26;12.80;99.90
14993;DHT22;7592;51.088;13.732;2023-04-24T01:32:18;12.80;99.90
14993;DHT22;7592;51.088;13.732;2023-04-24T01:37:11;12.80;99.90
14993;DHT22;7592;51.088;13.732;2023-04-24T01:42:12;12.90;99.90
14993;DHT22;7592;51.088;13.732;2023-04-24T01:47:05;13.00;99.90
14993;DHT22;7592;51.088;13.732;2023-04-24T01:51:57;13.00;99.90
14993;DHT22;7592;51.088;13.732;2023-04-24T01:56:49;12.90;99.90
14993;DHT22;7592;51.088;13.732;2023-04-24T02:01:41;13.00;99.90
14993;DHT22;7592;51.088;13.732;2023-04-24T02:06:34;13.00;99.90
14993;DHT22;7592;51.088;13.732;2023-04-24T02:11:26;13.10;99.90
14993;DHT22;7592;51.088;13.732;2023-04-24T02:16:18;13.10;99.90
14993;DHT22;7592;51.088;13.732;2023-04-24T02:21:11;13.10;99.90
14993;DHT22;7592;51.088;13.732;2023-04-24T02:26:03;13.00;99.90
14993;DHT22;7592;51.088;13.732;2023-04-24T02:30:55;13.00;99.90
14993;DHT22;7592;51.088;13.732;2023-04-24T02:35:47;12.90;99.90
14993;DHT22;7592;51.088;13.732;2023-04-24T02:40:39;13.00;99.90
14993;DHT22;7592;51.088;13.732;2023-04-24T02:45:31;13.00;99.90
14993;DHT22;7592;51.088;13.732;2023-04-24T02:50:23;13.00;99.90
14993;DHT22;7592;51.088;13.732;2023-04-24T02:55:15;13.00;99.90
14993;DHT22;7592;51.088;13.732;2023-04-24T03:00:07;13.00;99.90
14993;DHT22;7592;51.088;13.732;2023-04-24T03:05:01;13.00;99.90
14993;DHT22;7592;51.088;13.732;2023-04-24T03:09:54;12.90;99.90
14993;DHT22;7592;51.088;13.732;2023-04-24T03:14:46;12.80;99.90
14993;DHT22;7592;51.088;13.732;2023-04-24T03:19:38;12.80;99.90
14993;DHT22;7592;51.088;13.732;2023-04-24T03:24:35;12.80;99.90
14993;DHT22;7592;51.088;13.732;2023-04-24T03:29:27;12.80;99.90
14993;DHT22;7592;51.088;13.732;2023-04-24T03:34:22;12.80;99.90
14993;DHT22;7592;51.088;13.732;2023-04-24T03:39:15;12.80;99.90
14993;DHT22;7592;51.088;13.732;2023-04-24T03:44:15;12.80;99.90
14993;DHT22;7592;51.088;13.732;2023-04-24T03:49:09;12.80;99.90
14993;DHT22;7592;51.088;13.732;2023-04-24T03:54:05;12.80;99.90
14993;DHT22;7592;51.088;13.732;2023-04-24T03:59:02;12.80;99.90
14993;DHT22;7592;51.088;13.732;2023-04-24T04:03:55;12.90;99.90
14993;DHT22;7592;51.088;13.732;2023-04-24T04:08:49;13.00;99.90
14993;DHT22;7592;51.088;13.732;2023-04-24T04:13:42;13.20;99.90
14993;DHT22;7592;51.088;13.732;2023-04-24T04:18:34;13.30;99.90
14993;DHT22;7592;51.088;13.732;2023-04-24T04:23:28;13.50;99.90
14993;DHT22;7592;51.088;13.732;2023-04-24T04:28:31;13.60;99.90
14993;DHT22;7592;51.088;13.732;2023-04-24T04:33:24;13.70;99.90
14993;DHT22;7592;51.088;13.732;2023-04-24T04:38:18;13.80;99.90
14993;DHT22;7592;51.088;13.732;2023-04-24T04:43:17;13.90;99.90
14993;DHT22;7592;51.088;13.732;2023-04-24T04:48:15;14.00;99.90
14993;DHT22;7592;51.088;13.732;2023-04-24T04:53:10;14.00;99.90
14993;DHT22;7592;51.088;13.732;2023-04-24T04:58:03;14.10;99.90
14993;DHT22;7592;51.088;13.732;2023-04-24T05:02:55;14.30;99.90
14993;DHT22;7592;51.088;13.732;2023-04-24T05:08:04;14.60;99.90
14993;DHT22;7592;51.088;13.732;2023-04-24T05:13:02;14.90;99.90
14993;DHT22;7592;51.088;13.732;2023-04-24T05:17:55;15.30;99.90
14993;DHT22;7592;51.088;13.732;2023-04-24T05:22:51;15.80;99.90
14993;DHT22;7592;51.088;13.732;2023-04-24T05:27:45;16.40;99.90
14993;DHT22;7592;51.088;13.732;2023-04-24T05:32:40;17.00;99.90
14993;DHT22;7592;51.088;13.732;2023-04-24T05:37:32;17.10;99.90
14993;DHT22;7592;51.088;13.732;2023-04-24T05:42:24;16.90;99.90
14993;DHT22;7592;51.088;13.732;2023-04-24T05:47:17;16.90;99.90
14993;DHT22;7592;51.088;13.732;2023-04-24T05:52:09;17.10;99.90
14993;DHT22;7592;51.088;13.732;2023-04-24T05:57:03;17.40;99.90
14993;DHT22;7592;51.088;13.732;2023-04-24T06:02:13;17.40;99.90
14993;DHT22;7592;51.088;13.732;2023-04-24T06:07:05;17.70;99.90
14993;DHT22;7592;51.088;13.732;2023-04-24T06:11:59;17.90;99.90
14993;DHT22;7592;51.088;13.732;2023-04-24T06:17:01;18.20;99.90
14993;DHT22;7592;51.088;13.732;2023-04-24T06:21:59;18.70;99.90
14993;DHT22;7592;51.088;13.732;2023-04-24T06:26:52;19.50;99.90
14993;DHT22;7592;51.088;13.732;2023-04-24T06:31:44;21.00;99.90
14993;DHT22;7592;51.088;13.732;2023-04-24T06:36:36;23.20;99.90
14993;DHT22;7592;51.088;13.732;2023-04-24T06:41:29;24.00;98.70
14993;DHT22;7592;51.088;13.732;2023-04-24T06:46:22;25.10;93.70
14993;DHT22;7592;51.088;13.732;2023-04-24T06:51:15;25.60;91.00
14993;DHT22;7592;51.088;13.732;2023-04-24T06:56:09;27.50;83.00
14993;DHT22;7592;51.088;13.732;2023-04-24T07:01:01;27.60;75.70
14993;DHT22;7592;51.088;13.732;2023-04-24T07:05:54;27.10;74.80
14993;DHT22;7592;51.088;13.732;2023-04-24T07:10:46;27.90;72.10
14993;DHT22;7592;51.088;13.732;2023-04-24T07:15:39;30.50;66.80
14993;DHT22;7592;51.088;13.732;2023-04-24T07:20:32;32.60;60.50
14993;DHT22;7592;51.088;13.732;2023-04-24T07:25:25;32.00;58.30
14993;DHT22;7592;51.088;13.732;2023-04-24T07:30:17;31.20;58.30
14993;DHT22;7592;51.088;13.732;2023-04-24T07:35:09;30.00;59.30
14993;DHT22;7592;51.088;13.732;2023-04-24T07:40:02;29.00;60.10
14993;DHT22;7592;51.088;13.732;2023-04-24T07:44:56;27.80;62.70
14993;DHT22;7592;51.088;13.732;2023-04-24T07:49:48;26.50;65.10
14993;DHT22;7592;51.088;13.732;2023-04-24T07:54:40;26.30;65.80
14993;DHT22;7592;51.088;13.732;2023-04-24T07:59:33;25.60;68.10
14993;DHT22;7592;51.088;13.732;2023-04-24T08:04:25;25.10;69.10
14993;DHT22;7592;51.088;13.732;2023-04-24T08:09:18;24.80;69.80
14993;DHT22;7592;51.088;13.732;2023-04-24T08:14:10;24.20;71.20
14993;DHT22;7592;51.088;13.732;2023-04-24T08:19:04;24.00;72.60
14993;DHT22;7592;51.088;13.732;2023-04-24T08:23:56;25.40;70.30
14993;DHT22;7592;51.088;13.732;2023-04-24T08:28:48;25.40;69.20
14993;DHT22;7592;51.088;13.732;2023-04-24T08:33:40;24.10;71.10
14993;DHT22;7592;51.088;13.732;2023-04-24T08:38:33;22.60;74.10
14993;DHT22;7592;51.088;13.732;2023-04-24T08:43:26;22.00;77.00
14993;DHT22;7592;51.088;13.732;2023-04-24T08:48:19;22.40;77.60
14993;DHT22;7592;51.088;13.732;2023-04-24T08:53:24;22.90;76.10
14993;DHT22;7592;51.088;13.732;2023-04-24T08:58:16;23.60;75.20
14993;DHT22;7592;51.088;13.732;2023-04-24T09:03:10;24.60;72.60
14993;DHT22;7592;51.088;13.732;2023-04-24T09:08:04;24.60;72.40
14993;DHT22;7592;51.088;13.732;2023-04-24T09:12:56;25.20;67.30
14993;DHT22;7592;51.088;13.732;2023-04-24T09:17:50;26.10;65.20
14993;DHT22;7592;51.088;13.732;2023-04-24T09:22:43;26.80;63.20
14993;DHT22;7592;51.088;13.732;2023-04-24T09:27:36;26.10;65.20
14993;DHT22;7592;51.088;13.732;2023-04-24T09:32:33;26.80;63.50
14993;DHT22;7592;51.088;13.732;2023-04-24T09:37:29;26.50;63.60
14993;DHT22;7592;51.088;13.732;2023-04-24T09:42:21;25.90;64.20
14993;DHT22;7592;51.088;13.732;2023-04-24T09:47:17;25.50;66.10
14993;DHT22;7592;51.088;13.732;2023-04-24T09:52:10;25.20;67.20
14993;DHT22;7592;51.088;13.732;2023-04-24T09:57:03;24.90;67.50
14993;DHT22;7592;51.088;13.732;2023-04-24T10:01:55;24.50;68.30
14993;DHT22;7592;51.088;13.732;2023-04-24T10:06:51;23.90;67.50
14993;DHT22;7592;51.088;13.732;2023-04-24T10:11:44;22.50;70.40
14993;DHT22;7592;51.088;13.732;2023-04-24T10:16:38;22.70;71.00
14993;DHT22;7592;51.088;13.732;2023-04-24T10:21:32;22.90;70.20
14993;DHT22;7592;51.088;13.732;2023-04-24T10:26:24;23.00;70.50
14993;DHT22;7592;51.088;13.732;2023-04-24T10:31:17;23.10;71.00
14993;DHT22;7592;51.088;13.732;2023-04-24T10:36:10;23.80;69.20
14993;DHT22;7592;51.088;13.732;2023-04-24T10:41:11;26.00;65.80
14993;DHT22;7592;51.088;13.732;2023-04-24T10:46:08;29.00;59.90
14993;DHT22;7592;51.088;13.732;2023-04-24T10:51:02;29.30;57.40
14993;DHT22;7592;51.088;13.732;2023-04-24T10:56:02;28.10;58.80
14993;DHT22;7592;51.088;13.732;2023-04-24T11:00:59;26.40;60.60
14993;DHT22;7592;51.088;13.732;2023-04-24T11:06:05;25.50;63.80
14993;DHT22;7592;51.088;13.732;2023-04-24T11:11:07;24.80;64.90
14993;DHT22;7592;51.088;13.732;2023-04-24T11:21:31;23.40;68.80
14993;DHT22;7592;51.088;13.732;2023-04-24T11:26:24;22.50;71.50
14993;DHT22;7592;51.088;13.732;2023-04-24T11:31:38;22.00;73.30
14993;DHT22;7592;51.088;13.732;2023-04-24T11:36:31;21.40;74.30
14993;DHT22;7592;51.088;13.732;2023-04-24T11:41:24;21.60;74.20
14993;DHT22;7592;51.088;13.732;2023-04-24T11:46:17;22.20;72.20
14993;DHT22;7592;51.088;13.732;2023-04-24T11:51:09;23.00;71.00
14993;DHT22;7592;51.088;13.732;2023-04-24T11:56:04;23.70;69.40
14993;DHT22;7592;51.088;13.732;2023-04-24T12:00:57;23.50;69.90
14993;DHT22;7592;51.088;13.732;2023-04-24T12:05:58;22.70;71.90
14993;DHT22;7592;51.088;13.732;2023-04-24T12:10:56;21.80;74.50
14993;DHT22;7592;51.088;13.732;2023-04-24T12:15:50;21.00;77.00
14993;DHT22;7592;51.088;13.732;2023-04-24T12:20:42;20.30;76.60
14993;DHT22;7592;51.088;13.732;2023-04-24T12:25:35;19.90;77.00
14993;DHT22;7592;51.088;13.732;2023-04-24T12:30:27;19.80;77.20
14993;DHT22;7592;51.088;13.732;2023-04-24T12:35:23;20.00;75.80
14993;DHT22;7592;51.088;13.732;2023-04-24T12:40:17;20.00;74.70
14993;DHT22;7592;51.088;13.732;2023-04-24T12:45:10;20.00;72.20
14993;DHT22;7592;51.088;13.732;2023-04-24T12:50:04;20.70;71.00
14993;DHT22;7592;51.088;13.732;2023-04-24T12:54:59;21.00;70.70
14993;DHT22;7592;51.088;13.732;2023-04-24T12:59:54;21.20;69.70
14993;DHT22;7592;51.088;13.732;2023-04-24T13:04:47;21.20;68.70
14993;DHT22;7592;51.088;13.732;2023-04-24T13:09:39;21.20;68.70
14993;DHT22;7592;51.088;13.732;2023-04-24T13:14:32;21.80;67.80
14993;DHT22;7592;51.088;13.732;2023-04-24T13:19:25;22.00;63.10
14993;DHT22;7592;51.088;13.732;2023-04-24T13:24:18;22.30;62.80
14993;DHT22;7592;51.088;13.732;2023-04-24T13:29:10;22.30;62.90
14993;DHT22;7592;51.088;13.732;2023-04-24T13:34:03;22.10;64.50
14993;DHT22;7592;51.088;13.732;2023-04-24T13:38:55;21.20;63.60
14993;DHT22;7592;51.088;13.732;2023-04-24T13:43:47;20.30;66.50
14993;DHT22;7592;51.088;13.732;2023-04-24T13:48:39;20.20;67.80
14993;DHT22;7592;51.088;13.732;2023-04-24T13:53:32;20.50;63.60
14993;DHT22;7592;51.088;13.732;2023-04-24T13:58:27;20.10;63.50
14993;DHT22;7592;51.088;13.732;2023-04-24T14:03:19;19.90;64.50
14993;DHT22;7592;51.088;13.732;2023-04-24T14:08:12;19.70;64.00
14993;DHT22;7592;51.088;13.732;2023-04-24T14:13:04;19.90;63.50
14993;DHT22;7592;51.088;13.732;2023-04-24T14:17:56;20.00;64.60
14993;DHT22;7592;51.088;13.732;2023-04-24T14:22:48;20.00;62.90
14993;DHT22;7592;51.088;13.732;2023-04-24T14:27:40;20.30;64.70
14993;DHT22;7592;51.088;13.732;2023-04-24T14:32:32;20.70;60.50
14993;DHT22;7592;51.088;13.732;2023-04-24T14:37:27;20.50;61.70
14993;DHT22;7592;51.088;13.732;2023-04-24T14:42:19;20.50;63.00
14993;DHT22;7592;51.088;13.732;2023-04-24T14:47:11;20.70;62.70
14993;DHT22;7592;51.088;13.732;2023-04-24T14:52:03;20.50;63.10
14993;DHT22;7592;51.088;13.732;2023-04-24T14:56:55;20.20;64.40
14993;DHT22;7592;51.088;13.732;2023-04-24T15:01:49;19.90;63.90
14993;DHT22;7592;51.088;13.732;2023-04-24T15:06:52;19.80;65.60
14993;DHT22;7592;51.088;13.732;2023-04-24T15:11:48;19.60;66.30
14993;DHT22;7592;51.088;13.732;2023-04-24T15:16:40;19.50;66.60
14993;DHT22;7592;51.088;13.732;2023-04-24T15:21:32;19.70;66.70
14993;DHT22;7592;51.088;13.732;2023-04-24T15:26:25;19.60;65.10
14993;DHT22;7592;51.088;13.732;2023-04-24T15:31:18;19.20;65.40
14993;DHT22;7592;51.088;13.732;2023-04-24T15:36:13;18.90;64.30
14993;DHT22;7592;51.088;13.732;2023-04-24T15:41:06;18.80;65.90
14993;DHT22;7592;51.088;13.732;2023-04-24T15:45:58;18.70;66.80
14993;DHT22;7592;51.088;13.732;2023-04-24T15:50:50;18.60;67.20
14993;DHT22;7592;51.088;13.732;2023-04-24T15:55:42;18.60;67.30
14993;DHT22;7592;51.088;13.732;2023-04-24T16:00:34;18.40;67.60
14993;DHT22;7592;51.088;13.732;2023-04-24T16:05:28;18.20;68.50
14993;DHT22;7592;51.088;13.732;2023-04-24T16:10:20;17.90;70.10
14993;DHT22;7592;51.088;13.732;2023-04-24T16:15:12;17.60;71.80
14993;DHT22;7592;51.088;13.732;2023-04-24T16:20:04;17.60;72.50
14993;DHT22;7592;51.088;13.732;2023-04-24T16:24:56;17.50;72.20
14993;DHT22;7592;51.088;13.732;2023-04-24T16:29:49;17.60;73.00
14993;DHT22;7592;51.088;13.732;2023-04-24T16:34:41;17.60;72.20
14993;DHT22;7592;51.088;13.732;2023-04-24T16:39:34;17.50;73.10
14993;DHT22;7592;51.088;13.732;2023-04-24T16:44:26;17.30;73.70
14993;DHT22;7592;51.088;13.732;2023-04-24T16:49:18;17.00;75.10
14993;DHT22;7592;51.088;13.732;2023-04-24T16:54:12;16.80;76.30
14993;DHT22;7592;51.088;13.732;2023-04-24T16:59:04;16.70;77.40
14993;DHT22;7592;51.088;13.732;2023-04-24T17:03:59;16.70;78.10
14993;DHT22;7592;51.088;13.732;2023-04-24T17:08:51;16.80;78.60
14993;DHT22;7592;51.088;13.732;2023-04-24T17:13:43;16.70;76.90
14993;DHT22;7592;51.088;13.732;2023-04-24T17:18:35;16.50;76.70
14993;DHT22;7592;51.088;13.732;2023-04-24T17:23:27;16.30;78.70
14993;DHT22;7592;51.088;13.732;2023-04-24T17:28:30;16.10;79.40
14993;DHT22;7592;51.088;13.732;2023-04-24T17:33:24;16.00;80.50
14993;DHT22;7592;51.088;13.732;2023-04-24T17:38:17;15.80;82.10
14993;DHT22;7592;51.088;13.732;2023-04-24T17:43:09;15.70;83.40
14993;DHT22;7592;51.088;13.732;2023-04-24T17:48:01;15.60;84.50
14993;DHT22;7592;51.088;13.732;2023-04-24T17:52:54;15.60;85.10
14993;DHT22;7592;51.088;13.732;2023-04-24T17:57:46;15.50;85.30
14993;DHT22;7592;51.088;13.732;2023-04-24T18:02:38;15.30;86.40
14993;DHT22;7592;51.088;13.732;2023-04-24T18:07:31;15.30;87.10
14993;DHT22;7592;51.088;13.732;2023-04-24T18:12:24;15.10;86.10
14993;DHT22;7592;51.088;13.732;2023-04-24T18:17:16;14.80;86.40
14993;DHT22;7592;51.088;13.732;2023-04-24T18:22:09;14.40;87.70
14993;DHT22;7592;51.088;13.732;2023-04-24T18:27:01;14.10;89.10
14993;DHT22;7592;51.088;13.732;2023-04-24T18:31:53;13.80;90.90
14993;DHT22;7592;51.088;13.732;2023-04-24T18:36:45;13.60;92.00
14993;DHT22;7592;51.088;13.732;2023-04-24T18:41:37;13.50;92.50
14993;DHT22;7592;51.088;13.732;2023-04-24T18:46:29;13.30;93.60
14993;DHT22;7592;51.088;13.732;2023-04-24T18:51:25;13.10;94.70
14993;DHT22;7592;51.088;13.732;2023-04-24T18:56:17;13.10;95.70
14993;DHT22;7592;51.088;13.732;2023-04-24T19:01:10;13.00;97.30
14993;DHT22;7592;51.088;13.732;2023-04-24T19:06:02;13.00;99.20
14993;DHT22;7592;51.088;13.732;2023-04-24T19:10:54;13.00;99.90
14993;DHT22;7592;51.088;13.732;2023-04-24T19:15:46;13.00;99.90
14993;DHT22;7592;51.088;13.732;2023-04-24T19:20:38;13.20;99.90
14993;DHT22;7592;51.088;13.732;2023-04-24T19:25:31;13.20;99.90
14993;DHT22;7592;51.088;13.732;2023-04-24T19:30:24;13.20;99.90
14993;DHT22;7592;51.088;13.732;2023-04-24T19:35:16;13.30;99.90
14993;DHT22;7592;51.088;13.732;2023-04-24T19:40:09;13.20;99.90
14993;DHT22;7592;51.088;13.732;2023-04-24T19:45:01;13.00;99.90
14993;DHT22;7592;51.088;13.732;2023-04-24T19:49:54;12.80;99.90
14993;DHT22;7592;51.088;13.732;2023-04-24T19:54:46;12.60;99.90
14993;DHT22;7592;51.088;13.732;2023-04-24T19:59:39;12.50;99.90
14993;DHT22;7592;51.088;13.732;2023-04-24T20:04:31;12.30;99.90
14993;DHT22;7592;51.088;13.732;2023-04-24T20:09:23;12.30;99.90
14993;DHT22;7592;51.088;13.732;2023-04-24T20:14:15;12.30;99.90
14993;DHT22;7592;51.088;13.732;2023-04-24T20:19:07;12.40;99.90
14993;DHT22;7592;51.088;13.732;2023-04-24T20:24:00;12.60;99.90
14993;DHT22;7592;51.088;13.732;2023-04-24T20:28:52;12.60;99.90
14993;DHT22;7592;51.088;13.732;2023-04-24T20:33:44;12.60;99.90
14993;DHT22;7592;51.088;13.732;2023-04-24T20:38:36;12.50;99.90
14993;DHT22;7592;51.088;13.732;2023-04-24T20:43:30;12.20;99.90
14993;DHT22;7592;51.088;13.732;2023-04-24T20:48:22;12.00;99.90
14993;DHT22;7592;51.088;13.732;2023-04-24T20:53:14;11.90;99.90
14993;DHT22;7592;51.088;13.732;2023-04-24T20:58:08;11.60;99.90
14993;DHT22;7592;51.088;13.732;2023-04-24T21:03:00;11.50;99.90
14993;DHT22;7592;51.088;13.732;2023-04-24T21:07:54;11.50;99.90
14993;DHT22;7592;51.088;13.732;2023-04-24T21:12:46;11.50;99.90
14993;DHT22;7592;51.088;13.732;2023-04-24T21:17:38;11.40;99.90
14993;DHT22;7592;51.088;13.732;2023-04-24T21:22:31;11.40;99.90
14993;DHT22;7592;51.088;13.732;2023-04-24T21:27:23;11.50;99.90
14993;DHT22;7592;51.088;13.732;2023-04-24T21:32:15;11.50;99.90
14993;DHT22;7592;51.088;13.732;2023-04-24T21:37:07;11.40;99.90
14993;DHT22;7592;51.088;13.732;2023-04-24T21:41:59;11.30;99.90
14993;DHT22;7592;51.088;13.732;2023-04-24T21:46:51;11.10;99.90
14993;DHT22;7592;51.088;13.732;2023-04-24T21:51:43;11.00;99.90
14993;DHT22;7592;51.088;13.732;2023-04-24T21:56:35;10.90;99.90
14993;DHT22;7592;51.088;13.732;2023-04-24T22:01:28;10.80;99.90
14993;DHT22;7592;51.088;13.732;2023-04-24T22:06:20;10.80;99.90
14993;DHT22;7592;51.088;13.732;2023-04-24T22:11:13;10.90;99.90
14993;DHT22;7592;51.088;13.732;2023-04-24T22:16:17;10.90;99.90
14993;DHT22;7592;51.088;13.732;2023-04-24T22:21:09;11.00;99.90
14993;DHT22;7592;51.088;13.732;2023-04-24T22:26:02;10.90;99.90
14993;DHT22;7592;51.088;13.732;2023-04-24T22:30:54;10.80;99.90
14993;DHT22;7592;51.088;13.732;2023-04-24T22:35:46;10.70;99.90
14993;DHT22;7592;51.088;13.732;2023-04-24T22:40:38;10.50;99.90
14993;DHT22;7592;51.088;13.732;2023-04-24T22:45:31;10.30;99.90
14993;DHT22;7592;51.088;13.732;2023-04-24T22:50:23;10.30;99.90
14993;DHT22;7592;51.088;13.732;2023-04-24T22:55:16;10.20;99.90
14993;DHT22;7592;51.088;13.732;2023-04-24T23:00:09;10.10;99.90
14993;DHT22;7592;51.088;13.732;2023-04-24T23:05:04;10.00;99.90
14993;DHT22;7592;51.088;13.732;2023-04-24T23:09:57;9.90;99.90
14993;DHT22;7592;51.088;13.732;2023-04-24T23:14:49;9.80;99.90
14993;DHT22;7592;51.088;13.732;2023-04-24T23:19:41;9.80;99.90
14993;DHT22;7592;51.088;13.732;2023-04-24T23:24:33;9.60;99.90
14993;DHT22;7592;51.088;13.732;2023-04-24T23:29:25;9.50;99.90
14993;DHT22;7592;51.088;13.732;2023-04-24T23:34:18;9.50;99.90
14993;DHT22;7592;51.088;13.732;2023-04-24T23:39:10;9.50;99.90
14993;DHT22;7592;51.088;13.732;2023-04-24T23:44:04;9.70;99.90
14993;DHT22;7592;51.088;13.732;2023-04-24T23:48:56;9.90;99.90
14993;DHT22;7592;51.088;13.732;2023-04-24T23:53:48;10.00;99.90
14993;DHT22;7592;51.088;13.732;2023-04-24T23:58:41;10.00;99.90
